NWS5202 USTR-UWGG
Flight info
| Callsign | NWS5202 |
|---|---|
| Flight time | N/A |
| Altitude | 38000 |
| Route | K0848F380 BEPAR1Q BEPAR T448 BANAM T348 EKB M864 AGNOK T796 ORTIM L158 KOKAD N604 PESAB PESAB2P |
| Aircraft | B738/M-SDE2E3FGHIRWXY/LB1 |
Departure
| Time | 2026-04-21 11:04 |
|---|---|
| Airport | Roshchino International Airport (USTR) |
Arrival
| Time | N/A |
|---|---|
| Airport | Nizhny Novgorod / Strigino International Airport (UWGG) |
| Time | Latitude | Longitude | Altitude | Speed | Heading |
|---|---|---|---|---|---|
| 2026-04-21 10:42 | 57.18077 | 65.34796 | 340 ft | 0 kts | 45° |
| 2026-04-21 10:54 | 57.18063 | 65.34771 | 334 ft | 4 kts | 45° |
| 2026-04-21 10:54 | 57.18044 | 65.34738 | 340 ft | 3 kts | 40° |
| 2026-04-21 10:54 | 57.18030 | 65.34719 | 337 ft | 2 kts | 21° |
| 2026-04-21 10:55 | 57.18019 | 65.34716 | 335 ft | 2 kts | 336° |
| 2026-04-21 10:55 | 57.18010 | 65.34727 | 335 ft | 2 kts | 318° |
| 2026-04-21 10:55 | 57.18002 | 65.34741 | 337 ft | 1 kts | 315° |
| 2026-04-21 10:57 | 57.18004 | 65.34738 | 337 ft | 2 kts | 315° |
| 2026-04-21 10:57 | 57.18041 | 65.34671 | 340 ft | 13 kts | 316° |
| 2026-04-21 10:58 | 57.18127 | 65.34524 | 337 ft | 18 kts | 318° |
| 2026-04-21 10:58 | 57.18215 | 65.34363 | 337 ft | 17 kts | 312° |
| 2026-04-21 10:58 | 57.18293 | 65.34209 | 337 ft | 15 kts | 313° |
| 2026-04-21 10:58 | 57.18363 | 65.34072 | 337 ft | 14 kts | 313° |
| 2026-04-21 10:59 | 57.18427 | 65.33950 | 335 ft | 14 kts | 314° |
| 2026-04-21 10:59 | 57.18514 | 65.33785 | 335 ft | 23 kts | 314° |
| 2026-04-21 10:59 | 57.18619 | 65.33529 | 337 ft | 26 kts | 278° |
| 2026-04-21 10:59 | 57.18554 | 65.33239 | 335 ft | 26 kts | 227° |
| 2026-04-21 11:00 | 57.18472 | 65.32964 | 328 ft | 24 kts | 269° |
| 2026-04-21 11:00 | 57.18469 | 65.32660 | 328 ft | 24 kts | 268° |
| 2026-04-21 11:00 | 57.18463 | 65.32323 | 329 ft | 29 kts | 268° |
| 2026-04-21 11:00 | 57.18457 | 65.31923 | 341 ft | 33 kts | 268° |
| 2026-04-21 11:01 | 57.18352 | 65.31551 | 356 ft | 36 kts | 227° |
| 2026-04-21 11:01 | 57.18135 | 65.31112 | 368 ft | 52 kts | 227° |
| 2026-04-21 11:01 | 57.17909 | 65.30654 | 374 ft | 44 kts | 227° |
| 2026-04-21 11:02 | 57.17565 | 65.29963 | 382 ft | 30 kts | 228° |
| 2026-04-21 11:02 | 57.17434 | 65.29692 | 385 ft | 25 kts | 229° |
| 2026-04-21 11:02 | 57.17400 | 65.29483 | 386 ft | 18 kts | 317° |
| 2026-04-21 11:02 | 57.17497 | 65.29339 | 385 ft | 17 kts | 340° |
| 2026-04-21 11:03 | 57.17588 | 65.29452 | 385 ft | 17 kts | 49° |
| 2026-04-21 11:03 | 57.17813 | 65.29912 | 378 ft | 84 kts | 48° |
| 2026-04-21 11:03 | 57.18352 | 65.31014 | 361 ft | 145 kts | 49° |
| 2026-04-21 11:03 | 57.19062 | 65.32425 | 920 ft | 153 kts | 51° |
| 2026-04-21 11:04 | 57.19780 | 65.33893 | 1665 ft | 159 kts | 37° |
| 2026-04-21 11:04 | 57.20883 | 65.34444 | 2136 ft | 184 kts | 351° |
| 2026-04-21 11:04 | 57.22082 | 65.33279 | 2380 ft | 211 kts | 308° |
| 2026-04-21 11:04 | 57.22578 | 65.30691 | 2793 ft | 223 kts | 269° |
| 2026-04-21 11:05 | 57.22397 | 65.27717 | 3210 ft | 242 kts | 259° |
| 2026-04-21 11:05 | 57.22063 | 65.24637 | 4119 ft | 244 kts | 258° |
| 2026-04-21 11:05 | 57.21720 | 65.21585 | 5184 ft | 242 kts | 258° |
| 2026-04-21 11:05 | 57.21385 | 65.18513 | 6098 ft | 246 kts | 258° |
| 2026-04-21 11:06 | 57.21058 | 65.15405 | 6966 ft | 249 kts | 258° |
| 2026-04-21 11:06 | 57.20735 | 65.12240 | 7800 ft | 253 kts | 258° |
| 2026-04-21 11:06 | 57.20420 | 65.09078 | 8680 ft | 255 kts | 258° |
| 2026-04-21 11:06 | 57.20102 | 65.05844 | 9542 ft | 258 kts | 258° |
| 2026-04-21 11:07 | 57.19783 | 65.02554 | 10218 ft | 265 kts | 259° |
| 2026-04-21 11:07 | 57.19672 | 65.01413 | 10314 ft | 272 kts | 258° |
| 2026-04-21 11:07 | 57.19082 | 64.95297 | 10583 ft | 310 kts | 259° |
| 2026-04-21 11:07 | 57.18696 | 64.91277 | 10858 ft | 326 kts | 259° |
| 2026-04-21 11:08 | 57.18297 | 64.87117 | 11431 ft | 332 kts | 259° |
| 2026-04-21 11:08 | 57.17893 | 64.82908 | 12156 ft | 334 kts | 259° |
| 2026-04-21 11:08 | 57.17486 | 64.78677 | 12834 ft | 337 kts | 259° |
| 2026-04-21 11:08 | 57.17073 | 64.74397 | 13477 ft | 341 kts | 259° |
| 2026-04-21 11:09 | 57.16660 | 64.70129 | 14043 ft | 345 kts | 259° |
| 2026-04-21 11:09 | 57.16236 | 64.65771 | 14661 ft | 347 kts | 259° |
| 2026-04-21 11:09 | 57.15809 | 64.61388 | 15309 ft | 348 kts | 259° |
| 2026-04-21 11:09 | 57.15378 | 64.56986 | 15907 ft | 351 kts | 259° |
| 2026-04-21 11:10 | 57.14940 | 64.52546 | 16531 ft | 354 kts | 259° |
| 2026-04-21 11:10 | 57.14524 | 64.48058 | 17224 ft | 357 kts | 262° |
| 2026-04-21 11:10 | 57.14301 | 64.43491 | 17892 ft | 360 kts | 266° |
| 2026-04-21 11:10 | 57.14175 | 64.38860 | 18485 ft | 363 kts | 267° |
| 2026-04-21 11:11 | 57.14070 | 64.34201 | 19055 ft | 366 kts | 266° |
| 2026-04-21 11:11 | 57.13958 | 64.29501 | 19609 ft | 369 kts | 266° |
| 2026-04-21 11:11 | 57.13834 | 64.24829 | 20144 ft | 372 kts | 266° |
| 2026-04-21 11:11 | 57.13695 | 64.20054 | 20696 ft | 375 kts | 265° |
| 2026-04-21 11:12 | 57.13547 | 64.15250 | 21252 ft | 377 kts | 265° |
| 2026-04-21 11:12 | 57.13392 | 64.10408 | 21772 ft | 381 kts | 265° |
| 2026-04-21 11:12 | 57.13231 | 64.05523 | 22284 ft | 384 kts | 265° |
| 2026-04-21 11:12 | 57.13067 | 64.00597 | 22811 ft | 387 kts | 265° |
| 2026-04-21 11:13 | 57.12900 | 63.95639 | 23314 ft | 390 kts | 264° |
| 2026-04-21 11:13 | 57.12730 | 63.90643 | 23724 ft | 392 kts | 264° |
| 2026-04-21 11:13 | 57.12561 | 63.85682 | 24134 ft | 394 kts | 264° |
| 2026-04-21 11:13 | 57.12385 | 63.80640 | 24562 ft | 396 kts | 264° |
| 2026-04-21 11:14 | 57.12185 | 63.75575 | 24976 ft | 397 kts | 262° |
| 2026-04-21 11:14 | 57.11704 | 63.70579 | 25360 ft | 398 kts | 256° |
| 2026-04-21 11:14 | 57.11113 | 63.65585 | 25760 ft | 401 kts | 256° |
| 2026-04-21 11:14 | 57.10512 | 63.60565 | 26171 ft | 403 kts | 256° |
| 2026-04-21 11:15 | 57.09909 | 63.55526 | 26557 ft | 404 kts | 256° |
| 2026-04-21 11:15 | 57.09305 | 63.50463 | 26914 ft | 407 kts | 256° |
| 2026-04-21 11:15 | 57.08700 | 63.45371 | 27262 ft | 409 kts | 256° |
| 2026-04-21 11:15 | 57.08101 | 63.40319 | 27597 ft | 411 kts | 256° |
| 2026-04-21 11:16 | 57.07490 | 63.35179 | 27925 ft | 413 kts | 256° |
| 2026-04-21 11:16 | 57.06876 | 63.30013 | 28247 ft | 415 kts | 256° |
| 2026-04-21 11:16 | 57.06667 | 63.28258 | 28358 ft | 415 kts | 256° |
| 2026-04-21 11:17 | 57.03694 | 63.03549 | 30173 ft | 415 kts | 255° |
| 2026-04-21 11:17 | 57.03069 | 62.98398 | 30578 ft | 413 kts | 255° |
| 2026-04-21 11:18 | 57.02442 | 62.93264 | 30956 ft | 411 kts | 255° |
| 2026-04-21 11:18 | 57.01815 | 62.88148 | 31314 ft | 410 kts | 255° |
| 2026-04-21 11:18 | 57.01187 | 62.83045 | 31672 ft | 409 kts | 255° |
| 2026-04-21 11:18 | 57.00560 | 62.77965 | 32066 ft | 407 kts | 255° |
| 2026-04-21 11:19 | 56.99933 | 62.72906 | 32445 ft | 406 kts | 255° |
| 2026-04-21 11:19 | 56.99315 | 62.67935 | 32779 ft | 405 kts | 255° |
| 2026-04-21 11:19 | 56.98689 | 62.62912 | 33115 ft | 404 kts | 255° |
| 2026-04-21 11:19 | 56.98061 | 62.57900 | 33473 ft | 402 kts | 255° |
| 2026-04-21 11:20 | 56.97435 | 62.52915 | 33818 ft | 401 kts | 255° |
| 2026-04-21 11:20 | 56.96806 | 62.47929 | 34069 ft | 401 kts | 255° |
| 2026-04-21 11:20 | 56.96175 | 62.42943 | 34244 ft | 403 kts | 255° |
| 2026-04-21 11:20 | 56.95538 | 62.37935 | 34427 ft | 404 kts | 255° |
| 2026-04-21 11:21 | 56.94908 | 62.32991 | 34660 ft | 404 kts | 255° |
| 2026-04-21 11:21 | 56.94268 | 62.27985 | 34860 ft | 405 kts | 255° |